Flight Track Log - Related Links

Times and Time Zones

All times are in EST time to prevent confusion due to time zone crossing. See the DAL1903 flight status page for this flight to view local times or setup timezone preferences in your user account.

Time Position Orientation Groundspeed Altitude Reporting Facility
EST Latitude Longitude Course Direction KTS MPH feet Rate Location/Type
Wed 06:15:49 PM 25.7983 -80.2631 336° Northwest 153 176 1,200  Level Miami Center
Wed 06:16:57 PM 25.8106 -80.1917 79° East 251 289 2,600 1,953 Climbing Miami Center
Wed 06:17:58 PM 25.8494 -80.1281 56° Northeast 288 331 5,400 2,000 Climbing Miami Center
Wed 06:18:00 PM 26.1571 -80.1592 336° Northwest  Level Estimated
Wed 06:19:00 PM 26.2776 -80.1154 338° Northwest  Level Estimated
Wed 06:19:00 PM 25.9267 -80.1394 352° North 312 359 6,700  Level Miami Center
Wed 06:20:00 PM 26.3982 -80.0715 336° Northwest  Level Estimated
Wed 06:20:00 PM 25.9922 -80.1922 324° Northwest 295 339 9,500  Level Miami Center
Wed 06:21:00 PM 26.5187 -80.0275 336° Northwest  Level Estimated
Wed 06:21:00 PM 26.0578 -80.2542 320° Northwest 290 334 12,200  Level Miami Center
Wed 06:22:00 PM 26.1250 -80.3231 317° Northwest 315 362 13,500 1,750 Climbing Miami Center
Wed 06:23:00 PM 26.1983 -80.3969 318° Northwest 339 390 15,700 2,150 Climbing Miami Center
Wed 06:24:00 PM 26.2928 -80.4600 329° Northwest 355 409 17,800 1,850 Climbing Miami Center
Wed 06:25:00 PM 26.3839 -80.5000 339° North 374 430 19,400 1,650 Climbing Miami Center
Wed 06:26:00 PM 26.5042 -80.5317 347° North 390 449 21,100 1,600 Climbing Miami Center
Wed 06:27:00 PM 26.6078 -80.5581 347° North 413 475 22,600 1,600 Climbing Miami Center
Wed 06:28:00 PM 26.7325 -80.5875 348° North 413 475 24,300 1,450 Climbing Miami Center
Wed 06:29:00 PM 26.8383 -80.6142 347° North 421 484 25,500 1,100 Climbing Miami Center
Wed 06:30:00 PM 26.9669 -80.6461 348° North 426 490 26,500 1,100 Climbing Miami Center
Wed 06:31:00 PM 27.0789 -80.6733 348° North 444 511 27,700 1,150 Climbing Miami Center
Wed 06:32:00 PM 27.2117 -80.7056 348° North 444 511 28,800 1,050 Climbing Miami Center
Wed 06:33:00 PM 27.3361 -80.7378 347° North 449 517 29,800 1,200 Climbing Miami Center
Wed 06:34:00 PM 27.4603 -80.7769 344° North 454 522 31,200 1,050 Climbing Miami Center
Wed 06:35:00 PM 27.5611 -80.8319 334° Northwest 444 511 31,900 950 Climbing Miami Center
Wed 06:36:00 PM 27.6764 -80.8922 335° Northwest 444 511 33,100 1,050 Climbing Miami Center
Wed 06:37:00 PM 27.7853 -80.9503 335° Northwest 444 511 34,000 750 Climbing Miami Center
Wed 06:38:00 PM 27.8964 -81.0058 336° Northwest 437 503 34,600 500 Climbing Miami Center
Wed 06:39:00 PM 28.0117 -81.0642 336° Northwest 437 503 35,000 200 Climbing Miami Center
Wed 06:40:00 PM 28.1350 -81.1275 336° Northwest 437 503 35,000  Level Miami Center
Wed 06:41:00 PM 28.2458 -81.1858 335° Northwest 440 506 35,000  Level Miami Center
Wed 06:42:00 PM 28.3614 -81.2328 340° North 440 506 35,000  Level Miami Center
Wed 06:43:00 PM 28.4778 -81.2467 354° North 435 501 35,000  Level Miami Center
Wed 06:44:25 PM 28.6739 -81.2764 352° North 465 535 35,000  Level Jacksonville Center
Wed 06:45:25 PM 28.7953 -81.2911 354° North 465 535 35,000  Level Jacksonville Center
Wed 06:46:25 PM 28.9206 -81.3081 353° North 459 528 35,000  Level Jacksonville Center
Wed 06:47:25 PM 29.0439 -81.3228 354° North 439 505 35,000  Level Jacksonville Center
Wed 06:48:25 PM 29.1731 -81.3017 North 462 532 35,000  Level Jacksonville Center
Wed 06:49:25 PM 29.3000 -81.2639 15° North 473 544 35,000 -50 Level Jacksonville Center
Wed 06:50:25 PM 29.4247 -81.2236 16° North 465 535 34,900  Descending Jacksonville Center
Wed 06:51:25 PM 29.5369 -81.1906 14° North 465 535 35,000 50 Climbing Jacksonville Center
Wed 06:52:25 PM 29.6639 -81.1503 15° North 465 535 35,000  Level Jacksonville Center
Wed 06:53:25 PM 29.7928 -81.1097 15° North 465 535 35,000  Level Jacksonville Center
Wed 06:54:25 PM 29.9175 -81.0714 15° North 471 542 35,000  Level Jacksonville Center
Wed 06:55:25 PM 30.0483 -81.0306 15° North 471 542 35,000  Level Jacksonville Center
Wed 06:56:25 PM 30.1750 -80.9897 16° North 471 542 35,000  Level Jacksonville Center
Wed 06:57:25 PM 30.3017 -80.9486 16° North 471 542 35,000  Level Jacksonville Center
Wed 06:58:25 PM 30.4306 -80.9097 15° North 471 542 35,000  Level Jacksonville Center
Wed 06:59:25 PM 30.5575 -80.8686 16° North 471 542 35,000  Level Jacksonville Center
Wed 07:00:25 PM 30.6842 -80.8297 15° North 471 542 35,000  Level Jacksonville Center
Wed 07:01:25 PM 30.8108 -80.7883 16° North 471 542 35,000  Level Jacksonville Center
Wed 07:02:25 PM 30.9375 -80.7492 15° North 471 542 35,000  Level Jacksonville Center
Wed 07:03:25 PM 31.0619 -80.7050 17° North 471 542 35,000  Level Jacksonville Center
Wed 07:04:25 PM 31.1908 -80.6631 16° North 471 542 35,000  Level Jacksonville Center
Wed 07:05:25 PM 31.3217 -80.6261 14° North 471 542 35,000  Level Jacksonville Center
Wed 07:06:25 PM 31.4483 -80.5864 15° North 471 542 35,000  Level Jacksonville Center
Wed 07:07:25 PM 31.5728 -80.5467 15° North 466 536 35,000  Level Jacksonville Center
Wed 07:08:25 PM 31.7117 -80.4992 16° North 466 536 35,000  Level Jacksonville Center
Wed 07:09:25 PM 31.8258 -80.4644 14° North 470 541 35,000 -50 Level Jacksonville Center
Wed 07:10:25 PM 31.9503 -80.4222 16° North 470 541 34,900  Descending Jacksonville Center
Wed 07:11:25 PM 32.0769 -80.3819 15° North 470 541 35,000 50 Climbing Jacksonville Center
Wed 07:12:25 PM 32.2014 -80.3392 16° North 470 541 35,000  Level Jacksonville Center
Wed 07:13:25 PM 32.3300 -80.2989 15° North 470 541 35,000  Level Jacksonville Center
Wed 07:14:25 PM 32.4586 -80.2558 16° North 470 541 35,000  Level Jacksonville Center
Wed 07:15:25 PM 32.5850 -80.2125 16° North 470 541 35,000  Level Jacksonville Center
Wed 07:16:25 PM 32.7156 -80.1692 16° North 475 547 35,000 -50 Level Jacksonville Center
Wed 07:17:25 PM 32.8397 -80.1258 16° North 475 547 34,900 -50 Descending Jacksonville Center
Wed 07:18:25 PM 32.9786 -80.0772 16° North 469 540 34,900  Level Jacksonville Center
Wed 07:19:25 PM 33.1153 -80.0306 16° North 479 551 34,900 50 Level Jacksonville Center
Wed 07:20:25 PM 33.2439 -79.9917 14° North 479 551 35,000 50 Climbing Jacksonville Center
Wed 07:21:25 PM 33.3722 -79.9528 14° North 474 545 35,000  Level Jacksonville Center
Wed 07:22:25 PM 33.4986 -79.9086 16° North 474 545 35,000 -50 Level Jacksonville Center
Wed 07:23:25 PM 33.6289 -79.8644 16° North 474 545 34,900  Descending Jacksonville Center
Wed 07:24:25 PM 33.7572 -79.8200 16° North 474 545 35,000 50 Climbing Jacksonville Center
Wed 07:25:25 PM 33.8856 -79.7756 16° North 474 545 35,000 -50 Level Jacksonville Center
Wed 07:26:25 PM 34.0158 -79.7308 16° North 474 545 34,900 -50 Descending Jacksonville Center
Wed 07:27:25 PM 34.1461 -79.6858 16° North 474 545 34,900 30 Level Jacksonville Center
Wed 07:29:48 PM 34.4339 -79.5528 21° North 476 548 35,000 59 Climbing Washington Center
Wed 07:30:48 PM 34.5633 -79.4858 23° Northeast 486 559 35,100  Climbing Washington Center
Wed 07:31:49 PM 34.6928 -79.4189 23° Northeast 491 565 35,000 -50 Descending Washington Center
Wed 07:32:48 PM 34.8200 -79.3489 24° Northeast 491 565 35,000  Level Washington Center
Wed 07:33:49 PM 34.9517 -79.2814 23° Northeast 491 565 35,000  Level Washington Center
Wed 07:34:48 PM 35.0811 -79.2114 24° Northeast 491 565 35,000  Level Washington Center
Wed 07:35:49 PM 35.2103 -79.1433 23° Northeast 496 571 35,000  Level Washington Center
Wed 07:36:49 PM 35.3269 -79.0797 24° Northeast 501 577 35,000  Level Washington Center
Wed 07:37:48 PM 35.4647 -79.0092 23° Northeast 501 577 35,000  Level Washington Center
Wed 07:38:49 PM 35.6067 -78.9336 23° Northeast 501 577 35,000  Level Washington Center
Wed 07:39:49 PM 35.7358 -78.8622 24° Northeast 501 577 35,000  Level Washington Center
Wed 07:40:49 PM 35.8631 -78.7906 25° Northeast 501 577 35,000  Level Washington Center
Wed 07:41:49 PM 35.9844 -78.6903 34° Northeast 501 577 35,000  Level Washington Center
Wed 07:42:50 PM 36.1042 -78.5844 36° Northeast 519 597 35,000  Level Washington Center
Wed 07:43:49 PM 36.2256 -78.4783 35° Northeast 524 603 35,000  Level Washington Center
Wed 07:44:49 PM 36.3450 -78.3719 36° Northeast 529 609 35,000  Level Washington Center
Wed 07:45:49 PM 36.4642 -78.2650 36° Northeast 529 609 35,000  Level Washington Center
Wed 07:46:50 PM 36.5833 -78.1578 36° Northeast 529 609 35,000  Level Washington Center
Wed 07:47:50 PM 36.7003 -78.0531 36° Northeast 529 609 35,000  Level Washington Center
Wed 07:48:49 PM 36.8175 -77.9400 38° Northeast 529 609 35,000  Level Washington Center
Wed 07:49:50 PM 36.9222 -77.8028 46° Northeast 529 609 35,000  Level Washington Center
Wed 07:50:49 PM 37.0167 -77.6494 52° Northeast 540 621 35,000  Level Washington Center
Wed 07:51:48 PM 37.1092 -77.4878 54° Northeast 550 633 35,000  Level Washington Center
Wed 07:52:48 PM 37.2011 -77.3311 54° Northeast 561 646 35,000  Level Washington Center
Wed 07:53:49 PM 37.2992 -77.1819 50° Northeast 561 646 35,000  Level Washington Center
Wed 07:54:50 PM 37.4133 -77.0586 41° Northeast 545 627 35,000  Level Washington Center
Wed 07:55:49 PM 37.5314 -76.9667 32° Northeast 540 621 35,000  Level Washington Center
Wed 07:56:50 PM 37.6533 -76.8667 33° Northeast 535 616 35,000  Level Washington Center
Wed 07:57:48 PM 37.7753 -76.7661 33° Northeast 535 616 35,000  Level Washington Center
Wed 07:58:50 PM 37.9014 -76.6628 33° Northeast 530 610 35,000 50 Level Washington Center
Wed 07:59:48 PM 38.0253 -76.5617 33° Northeast 530 610 35,100  Climbing Washington Center
Wed 08:00:49 PM 38.1639 -76.4472 33° Northeast 530 610 35,000 -49 Descending Washington Center
Wed 08:01:50 PM 38.2856 -76.3431 34° Northeast 530 610 35,000  Level Washington Center
Wed 08:02:50 PM 38.4050 -76.2436 33° Northeast 524 603 35,000 -407 Level Washington Center
Wed 08:03:48 PM 38.5264 -76.1411 33° Northeast 524 603 34,200 -1,563 Descending Washington Center
Wed 08:04:49 PM 38.6456 -76.0436 33° Northeast 524 603 31,900 -2,607 Descending Washington Center
Wed 08:05:50 PM 38.7669 -75.9431 33° Northeast 524 603 28,900 -2,269 Descending Washington Center
Wed 08:06:48 PM 38.8858 -75.8422 33° Northeast 519 597 27,400 -950 Descending Washington Center
Wed 08:07:50 PM 39.0008 -75.7386 35° Northeast 514 592 27,000 -197 Descending Washington Center
Wed 08:08:50 PM 39.1175 -75.6292 36° Northeast 514 592 27,000  Level Washington Center
Wed 08:09:48 PM 39.2322 -75.5167 37° Northeast 508 585 27,000 -407 Level Washington Center
Wed 08:10:48 PM 39.3467 -75.4144 35° Northeast 508 585 26,200 -942 Descending Washington Center
Wed 08:11:49 PM 39.4631 -75.3119 34° Northeast 503 579 25,100 -1,672 Descending Washington Center
Wed 08:12:50 PM 39.5711 -75.2119 35° Northeast 498 573 22,800 -2,250 Descending Washington Center
Wed 08:13:49 PM 39.6772 -75.1144 35° Northeast 481 554 20,600 -2,100 Descending Washington Center
Wed 08:14:50 PM 39.7686 -75.0356 34° Northeast 452 520 18,600 -1,916 Descending Washington Center
Wed 08:15:48 PM 39.8764 -74.9400 34° Northeast 431 496 16,800 -2,089 Descending Washington Center
Wed 08:17:28 PM 40.0000 -74.7833 44° Northeast 344 396 13,100 -2,175 Descending New York TRACON
Wed 08:18:28 PM 40.0667 -74.7000 44° Northeast 326 375 11,000 -1,950 Descending New York TRACON
Wed 08:19:28 PM 40.1167 -74.6167 52° Northeast 322 371 9,200 -1,500 Descending New York TRACON
Wed 08:20:28 PM 40.1833 -74.5333 44° Northeast 312 359 8,000 -600 Descending New York TRACON
Wed 08:21:28 PM 40.2333 -74.4500 52° Northeast 307 353 8,000 -400 Level New York TRACON
Wed 08:22:28 PM 40.3000 -74.3833 37° Northeast 301 346 7,200 -500 Descending New York TRACON
Wed 08:23:28 PM 40.3500 -74.3000 52° Northeast 296 341 7,000 -100 Descending New York TRACON
Wed 08:24:28 PM 40.4167 -74.2333 37° Northeast 272 313 7,000 -400 Level New York TRACON
Wed 08:25:28 PM 40.4667 -74.1667 45° Northeast 254 292 6,200 -950 Descending New York TRACON
Wed 08:26:28 PM 40.5167 -74.1000 45° Northeast 250 288 5,100 -1,250 Descending New York TRACON
Wed 08:27:28 PM 40.5667 -74.0500 37° Northeast 247 284 3,700 -1,150 Descending New York TRACON
Wed 08:28:28 PM 40.6167 -74.0000 37° Northeast 238 274 2,800 -600 Descending New York TRACON
Wed 08:29:28 PM 40.6667 -73.9667 27° Northeast 204 235 2,500 -700 Descending New York TRACON
Wed 08:30:28 PM 40.7167 -73.9333 27° Northeast 165 190 1,400 -950 Descending New York TRACON
Wed 08:31:28 PM 40.7500 -73.9000 37° Northeast 136 157 600 -800 Descending New York TRACON

Login

Don't have an account? Register now (free) for customized features, flight alerts, and more!